sensor_id;sensor_type;location;lat;lon;timestamp;P1;durP1;ratioP1;P2;durP2;ratioP2
74269;SDS011;62754;48.252;11.654;2023-05-07T00:01:33;7.45;;;4.65;;
74269;SDS011;62754;48.252;11.654;2023-05-07T00:04:01;7.55;;;4.40;;
74269;SDS011;62754;48.252;11.654;2023-05-07T00:06:26;8.52;;;3.92;;
74269;SDS011;62754;48.252;11.654;2023-05-07T00:08:55;8.48;;;4.22;;
74269;SDS011;62754;48.252;11.654;2023-05-07T00:11:22;5.93;;;4.00;;
74269;SDS011;62754;48.252;11.654;2023-05-07T00:13:52;7.22;;;3.97;;
74269;SDS011;62754;48.252;11.654;2023-05-07T00:16:18;6.30;;;4.10;;
74269;SDS011;62754;48.252;11.654;2023-05-07T00:18:44;6.40;;;4.38;;
74269;SDS011;62754;48.252;11.654;2023-05-07T00:21:10;5.35;;;4.07;;
74269;SDS011;62754;48.252;11.654;2023-05-07T00:23:38;6.97;;;4.40;;
74269;SDS011;62754;48.252;11.654;2023-05-07T00:26:04;9.52;;;5.07;;
74269;SDS011;62754;48.252;11.654;2023-05-07T00:28:35;6.30;;;4.38;;
74269;SDS011;62754;48.252;11.654;2023-05-07T00:31:00;6.43;;;4.18;;
74269;SDS011;62754;48.252;11.654;2023-05-07T00:33:31;6.18;;;4.10;;
74269;SDS011;62754;48.252;11.654;2023-05-07T00:35:58;6.10;;;4.40;;
74269;SDS011;62754;48.252;11.654;2023-05-07T00:38:24;6.45;;;4.57;;
74269;SDS011;62754;48.252;11.654;2023-05-07T00:40:52;5.30;;;3.95;;
74269;SDS011;62754;48.252;11.654;2023-05-07T00:43:18;6.03;;;4.40;;
74269;SDS011;62754;48.252;11.654;2023-05-07T00:45:46;5.45;;;3.78;;
74269;SDS011;62754;48.252;11.654;2023-05-07T00:48:14;7.30;;;4.00;;
74269;SDS011;62754;48.252;11.654;2023-05-07T00:50:42;6.20;;;4.43;;
74269;SDS011;62754;48.252;11.654;2023-05-07T00:53:08;6.18;;;4.10;;
74269;SDS011;62754;48.252;11.654;2023-05-07T00:55:36;6.15;;;4.30;;
74269;SDS011;62754;48.252;11.654;2023-05-07T00:58:03;5.95;;;4.15;;
74269;SDS011;62754;48.252;11.654;2023-05-07T01:00:32;5.90;;;4.28;;
74269;SDS011;62754;48.252;11.654;2023-05-07T01:02:57;9.02;;;5.30;;
74269;SDS011;62754;48.252;11.654;2023-05-07T01:05:23;5.35;;;4.35;;
74269;SDS011;62754;48.252;11.654;2023-05-07T01:07:51;6.85;;;5.13;;
74269;SDS011;62754;48.252;11.654;2023-05-07T01:10:22;7.03;;;5.47;;
74269;SDS011;62754;48.252;11.654;2023-05-07T01:12:48;7.82;;;5.43;;
74269;SDS011;62754;48.252;11.654;2023-05-07T01:15:17;8.95;;;5.47;;
74269;SDS011;62754;48.252;11.654;2023-05-07T01:17:43;6.20;;;4.65;;
74269;SDS011;62754;48.252;11.654;2023-05-07T01:20:09;6.65;;;5.40;;
74269;SDS011;62754;48.252;11.654;2023-05-07T01:22:36;8.13;;;5.10;;
74269;SDS011;62754;48.252;11.654;2023-05-07T01:25:06;6.85;;;4.75;;
74269;SDS011;62754;48.252;11.654;2023-05-07T01:27:32;8.00;;;5.13;;
74269;SDS011;62754;48.252;11.654;2023-05-07T01:29:58;7.53;;;5.05;;
74269;SDS011;62754;48.252;11.654;2023-05-07T01:32:32;7.50;;;5.22;;
74269;SDS011;62754;48.252;11.654;2023-05-07T01:35:01;8.55;;;5.10;;
74269;SDS011;62754;48.252;11.654;2023-05-07T01:37:30;7.25;;;5.45;;
74269;SDS011;62754;48.252;11.654;2023-05-07T01:39:56;6.10;;;4.85;;
74269;SDS011;62754;48.252;11.654;2023-05-07T01:42:25;7.25;;;4.93;;
74269;SDS011;62754;48.252;11.654;2023-05-07T01:44:54;8.32;;;4.47;;
74269;SDS011;62754;48.252;11.654;2023-05-07T01:47:21;8.27;;;5.00;;
74269;SDS011;62754;48.252;11.654;2023-05-07T01:49:51;6.63;;;4.53;;
74269;SDS011;62754;48.252;11.654;2023-05-07T01:52:17;8.10;;;5.13;;
74269;SDS011;62754;48.252;11.654;2023-05-07T01:54:45;5.90;;;5.00;;
74269;SDS011;62754;48.252;11.654;2023-05-07T01:57:11;10.45;;;5.00;;
74269;SDS011;62754;48.252;11.654;2023-05-07T01:59:36;8.15;;;4.55;;
74269;SDS011;62754;48.252;11.654;2023-05-07T02:02:05;5.38;;;4.70;;
74269;SDS011;62754;48.252;11.654;2023-05-07T02:04:35;7.78;;;5.00;;
74269;SDS011;62754;48.252;11.654;2023-05-07T02:07:01;6.38;;;4.68;;
74269;SDS011;62754;48.252;11.654;2023-05-07T02:09:29;7.50;;;5.00;;
74269;SDS011;62754;48.252;11.654;2023-05-07T02:11:54;7.35;;;4.57;;
74269;SDS011;62754;48.252;11.654;2023-05-07T02:14:22;10.38;;;5.28;;
74269;SDS011;62754;48.252;11.654;2023-05-07T02:16:48;6.03;;;4.75;;
74269;SDS011;62754;48.252;11.654;2023-05-07T02:19:14;6.25;;;4.80;;
74269;SDS011;62754;48.252;11.654;2023-05-07T02:21:42;8.63;;;5.32;;
74269;SDS011;62754;48.252;11.654;2023-05-07T02:24:07;8.48;;;4.75;;
74269;SDS011;62754;48.252;11.654;2023-05-07T02:26:33;6.65;;;5.47;;
74269;SDS011;62754;48.252;11.654;2023-05-07T02:28:59;7.32;;;4.90;;
74269;SDS011;62754;48.252;11.654;2023-05-07T02:31:25;7.00;;;5.57;;
74269;SDS011;62754;48.252;11.654;2023-05-07T02:33:53;7.35;;;5.38;;
74269;SDS011;62754;48.252;11.654;2023-05-07T02:36:20;8.82;;;5.88;;
74269;SDS011;62754;48.252;11.654;2023-05-07T02:38:48;9.23;;;6.10;;
74269;SDS011;62754;48.252;11.654;2023-05-07T02:41:16;7.57;;;5.60;;
74269;SDS011;62754;48.252;11.654;2023-05-07T02:43:42;9.32;;;6.03;;
74269;SDS011;62754;48.252;11.654;2023-05-07T02:46:10;8.25;;;5.88;;
74269;SDS011;62754;48.252;11.654;2023-05-07T02:48:36;8.65;;;5.80;;
74269;SDS011;62754;48.252;11.654;2023-05-07T02:51:06;10.77;;;6.38;;
74269;SDS011;62754;48.252;11.654;2023-05-07T02:53:35;8.63;;;5.90;;
74269;SDS011;62754;48.252;11.654;2023-05-07T02:56:03;10.15;;;6.20;;
74269;SDS011;62754;48.252;11.654;2023-05-07T02:58:29;9.82;;;6.35;;
74269;SDS011;62754;48.252;11.654;2023-05-07T03:00:54;9.82;;;6.43;;
74269;SDS011;62754;48.252;11.654;2023-05-07T03:03:22;7.10;;;5.45;;
74269;SDS011;62754;48.252;11.654;2023-05-07T03:05:54;10.88;;;5.72;;
74269;SDS011;62754;48.252;11.654;2023-05-07T03:08:19;7.53;;;6.00;;
74269;SDS011;62754;48.252;11.654;2023-05-07T03:10:48;9.02;;;6.20;;
74269;SDS011;62754;48.252;11.654;2023-05-07T03:13:14;8.00;;;6.55;;
74269;SDS011;62754;48.252;11.654;2023-05-07T03:15:42;6.75;;;5.20;;
74269;SDS011;62754;48.252;11.654;2023-05-07T03:18:12;10.80;;;6.22;;
74269;SDS011;62754;48.252;11.654;2023-05-07T03:20:40;8.48;;;5.70;;
74269;SDS011;62754;48.252;11.654;2023-05-07T03:23:08;9.02;;;6.30;;
74269;SDS011;62754;48.252;11.654;2023-05-07T03:25:34;8.98;;;6.22;;
74269;SDS011;62754;48.252;11.654;2023-05-07T03:28:02;6.65;;;5.22;;
74269;SDS011;62754;48.252;11.654;2023-05-07T03:30:28;7.88;;;5.72;;
74269;SDS011;62754;48.252;11.654;2023-05-07T03:32:58;8.13;;;5.72;;
74269;SDS011;62754;48.252;11.654;2023-05-07T03:35:26;8.75;;;5.82;;
74269;SDS011;62754;48.252;11.654;2023-05-07T03:37:54;9.23;;;6.45;;
74269;SDS011;62754;48.252;11.654;2023-05-07T03:40:20;9.93;;;6.28;;
74269;SDS011;62754;48.252;11.654;2023-05-07T03:42:51;8.55;;;6.78;;
74269;SDS011;62754;48.252;11.654;2023-05-07T03:45:16;7.88;;;5.68;;
74269;SDS011;62754;48.252;11.654;2023-05-07T03:47:45;8.60;;;5.97;;
74269;SDS011;62754;48.252;11.654;2023-05-07T03:50:13;12.65;;;6.25;;
74269;SDS011;62754;48.252;11.654;2023-05-07T03:52:41;8.40;;;6.78;;
74269;SDS011;62754;48.252;11.654;2023-05-07T03:55:07;9.00;;;5.90;;
74269;SDS011;62754;48.252;11.654;2023-05-07T03:57:36;7.93;;;6.15;;
74269;SDS011;62754;48.252;11.654;2023-05-07T04:00:02;8.15;;;5.72;;
74269;SDS011;62754;48.252;11.654;2023-05-07T04:02:28;11.52;;;5.85;;
74269;SDS011;62754;48.252;11.654;2023-05-07T04:04:53;9.35;;;7.28;;
74269;SDS011;62754;48.252;11.654;2023-05-07T04:07:22;9.18;;;6.65;;
74269;SDS011;62754;48.252;11.654;2023-05-07T04:09:47;9.23;;;6.50;;
74269;SDS011;62754;48.252;11.654;2023-05-07T04:12:13;9.63;;;6.82;;
74269;SDS011;62754;48.252;11.654;2023-05-07T04:14:43;8.63;;;6.65;;
74269;SDS011;62754;48.252;11.654;2023-05-07T04:17:08;9.30;;;6.55;;
74269;SDS011;62754;48.252;11.654;2023-05-07T04:19:34;9.10;;;6.30;;
74269;SDS011;62754;48.252;11.654;2023-05-07T04:22:00;8.23;;;6.60;;
74269;SDS011;62754;48.252;11.654;2023-05-07T04:24:26;9.50;;;6.57;;
74269;SDS011;62754;48.252;11.654;2023-05-07T04:26:58;10.52;;;6.70;;
74269;SDS011;62754;48.252;11.654;2023-05-07T04:29:26;7.45;;;5.97;;
74269;SDS011;62754;48.252;11.654;2023-05-07T04:31:52;13.00;;;7.93;;
74269;SDS011;62754;48.252;11.654;2023-05-07T04:34:20;8.18;;;6.38;;
74269;SDS011;62754;48.252;11.654;2023-05-07T04:36:46;10.25;;;7.35;;
74269;SDS011;62754;48.252;11.654;2023-05-07T04:39:12;12.90;;;7.93;;
74269;SDS011;62754;48.252;11.654;2023-05-07T04:41:37;10.77;;;7.97;;
74269;SDS011;62754;48.252;11.654;2023-05-07T04:44:03;11.55;;;8.55;;
74269;SDS011;62754;48.252;11.654;2023-05-07T04:46:32;11.20;;;8.10;;
74269;SDS011;62754;48.252;11.654;2023-05-07T04:49:00;11.40;;;7.82;;
74269;SDS011;62754;48.252;11.654;2023-05-07T04:51:28;10.80;;;7.85;;
74269;SDS011;62754;48.252;11.654;2023-05-07T04:53:53;9.63;;;7.25;;
74269;SDS011;62754;48.252;11.654;2023-05-07T04:56:19;10.95;;;8.45;;
74269;SDS011;62754;48.252;11.654;2023-05-07T04:58:48;12.15;;;8.10;;
74269;SDS011;62754;48.252;11.654;2023-05-07T05:01:14;9.10;;;7.45;;
74269;SDS011;62754;48.252;11.654;2023-05-07T05:03:39;10.50;;;8.00;;
74269;SDS011;62754;48.252;11.654;2023-05-07T05:06:05;10.98;;;7.68;;
74269;SDS011;62754;48.252;11.654;2023-05-07T05:08:31;10.13;;;7.68;;
74269;SDS011;62754;48.252;11.654;2023-05-07T05:11:00;9.85;;;8.32;;
74269;SDS011;62754;48.252;11.654;2023-05-07T05:13:27;11.48;;;7.95;;
74269;SDS011;62754;48.252;11.654;2023-05-07T05:15:54;12.68;;;9.75;;
74269;SDS011;62754;48.252;11.654;2023-05-07T05:18:22;11.77;;;8.77;;
74269;SDS011;62754;48.252;11.654;2023-05-07T05:20:48;10.73;;;8.63;;
74269;SDS011;62754;48.252;11.654;2023-05-07T05:23:16;11.52;;;9.43;;
74269;SDS011;62754;48.252;11.654;2023-05-07T05:25:44;10.02;;;8.40;;
74269;SDS011;62754;48.252;11.654;2023-05-07T05:28:14;9.77;;;7.65;;
74269;SDS011;62754;48.252;11.654;2023-05-07T05:30:43;10.25;;;8.27;;
74269;SDS011;62754;48.252;11.654;2023-05-07T05:33:08;11.63;;;6.95;;
74269;SDS011;62754;48.252;11.654;2023-05-07T05:35:36;9.15;;;7.57;;
74269;SDS011;62754;48.252;11.654;2023-05-07T05:38:02;8.65;;;6.93;;
74269;SDS011;62754;48.252;11.654;2023-05-07T05:40:28;8.95;;;6.57;;
74269;SDS011;62754;48.252;11.654;2023-05-07T05:42:56;8.35;;;6.40;;
74269;SDS011;62754;48.252;11.654;2023-05-07T05:45:21;9.18;;;6.13;;
74269;SDS011;62754;48.252;11.654;2023-05-07T05:47:47;7.20;;;6.13;;
74269;SDS011;62754;48.252;11.654;2023-05-07T05:50:15;7.75;;;6.15;;
74269;SDS011;62754;48.252;11.654;2023-05-07T05:52:45;8.63;;;5.95;;
74269;SDS011;62754;48.252;11.654;2023-05-07T05:55:13;7.95;;;6.30;;
74269;SDS011;62754;48.252;11.654;2023-05-07T05:57:41;7.85;;;5.97;;
74269;SDS011;62754;48.252;11.654;2023-05-07T06:00:07;8.07;;;5.82;;
74269;SDS011;62754;48.252;11.654;2023-05-07T06:02:36;7.50;;;6.13;;
74269;SDS011;62754;48.252;11.654;2023-05-07T06:05:04;8.38;;;6.22;;
74269;SDS011;62754;48.252;11.654;2023-05-07T06:07:35;8.88;;;6.35;;
74269;SDS011;62754;48.252;11.654;2023-05-07T06:10:03;8.55;;;6.55;;
74269;SDS011;62754;48.252;11.654;2023-05-07T06:12:29;7.13;;;6.35;;
74269;SDS011;62754;48.252;11.654;2023-05-07T06:14:57;7.07;;;5.47;;
74269;SDS011;62754;48.252;11.654;2023-05-07T06:17:24;6.68;;;5.75;;
74269;SDS011;62754;48.252;11.654;2023-05-07T06:19:52;8.18;;;6.43;;
74269;SDS011;62754;48.252;11.654;2023-05-07T06:22:21;8.65;;;6.60;;
74269;SDS011;62754;48.252;11.654;2023-05-07T06:24:46;8.07;;;7.10;;
74269;SDS011;62754;48.252;11.654;2023-05-07T06:27:12;9.18;;;6.57;;
74269;SDS011;62754;48.252;11.654;2023-05-07T06:29:38;8.60;;;6.28;;
74269;SDS011;62754;48.252;11.654;2023-05-07T06:32:07;9.88;;;6.60;;
74269;SDS011;62754;48.252;11.654;2023-05-07T06:34:32;8.80;;;6.32;;
74269;SDS011;62754;48.252;11.654;2023-05-07T06:37:01;9.52;;;6.60;;
74269;SDS011;62754;48.252;11.654;2023-05-07T06:39:26;7.75;;;6.05;;
74269;SDS011;62754;48.252;11.654;2023-05-07T06:41:57;7.35;;;5.80;;
74269;SDS011;62754;48.252;11.654;2023-05-07T06:44:28;8.38;;;6.18;;
74269;SDS011;62754;48.252;11.654;2023-05-07T06:46:56;9.27;;;6.80;;
74269;SDS011;62754;48.252;11.654;2023-05-07T06:49:22;7.80;;;6.00;;
74269;SDS011;62754;48.252;11.654;2023-05-07T06:51:48;8.55;;;5.88;;
74269;SDS011;62754;48.252;11.654;2023-05-07T06:54:14;8.55;;;6.03;;
74269;SDS011;62754;48.252;11.654;2023-05-07T06:56:44;10.30;;;6.47;;
74269;SDS011;62754;48.252;11.654;2023-05-07T06:59:09;7.38;;;5.68;;
74269;SDS011;62754;48.252;11.654;2023-05-07T07:01:37;7.63;;;5.78;;
74269;SDS011;62754;48.252;11.654;2023-05-07T07:04:03;7.00;;;5.47;;
74269;SDS011;62754;48.252;11.654;2023-05-07T07:06:32;9.95;;;5.75;;
74269;SDS011;62754;48.252;11.654;2023-05-07T07:08:58;6.50;;;5.53;;
74269;SDS011;62754;48.252;11.654;2023-05-07T07:11:24;7.68;;;5.90;;
74269;SDS011;62754;48.252;11.654;2023-05-07T07:13:50;8.73;;;5.72;;
74269;SDS011;62754;48.252;11.654;2023-05-07T07:16:21;6.43;;;5.50;;
74269;SDS011;62754;48.252;11.654;2023-05-07T07:18:47;8.77;;;5.65;;
74269;SDS011;62754;48.252;11.654;2023-05-07T07:21:13;8.30;;;5.50;;
74269;SDS011;62754;48.252;11.654;2023-05-07T07:23:41;6.55;;;5.03;;
74269;SDS011;62754;48.252;11.654;2023-05-07T07:26:07;7.07;;;5.60;;
74269;SDS011;62754;48.252;11.654;2023-05-07T07:28:33;8.32;;;5.78;;
74269;SDS011;62754;48.252;11.654;2023-05-07T07:30:58;5.72;;;4.72;;
74269;SDS011;62754;48.252;11.654;2023-05-07T07:33:24;5.93;;;4.90;;
74269;SDS011;62754;48.252;11.654;2023-05-07T07:35:52;8.02;;;5.57;;
74269;SDS011;62754;48.252;11.654;2023-05-07T07:38:20;5.80;;;5.07;;
74269;SDS011;62754;48.252;11.654;2023-05-07T07:40:49;7.63;;;4.70;;
74269;SDS011;62754;48.252;11.654;2023-05-07T07:43:15;7.22;;;5.55;;
74269;SDS011;62754;48.252;11.654;2023-05-07T07:45:41;6.38;;;5.15;;
74269;SDS011;62754;48.252;11.654;2023-05-07T07:48:09;6.10;;;5.10;;
74269;SDS011;62754;48.252;11.654;2023-05-07T07:50:37;8.18;;;5.43;;
74269;SDS011;62754;48.252;11.654;2023-05-07T07:55:31;8.57;;;5.10;;
74269;SDS011;62754;48.252;11.654;2023-05-07T07:57:57;7.93;;;5.50;;
74269;SDS011;62754;48.252;11.654;2023-05-07T08:00:23;7.53;;;5.63;;
74269;SDS011;62754;48.252;11.654;2023-05-07T08:02:50;6.38;;;4.93;;
74269;SDS011;62754;48.252;11.654;2023-05-07T08:05:16;6.53;;;5.30;;
74269;SDS011;62754;48.252;11.654;2023-05-07T08:07:42;6.45;;;5.20;;
74269;SDS011;62754;48.252;11.654;2023-05-07T08:10:08;8.82;;;6.60;;
74269;SDS011;62754;48.252;11.654;2023-05-07T08:12:37;7.72;;;5.88;;
74269;SDS011;62754;48.252;11.654;2023-05-07T08:15:03;6.72;;;5.85;;
74269;SDS011;62754;48.252;11.654;2023-05-07T08:17:32;6.40;;;5.47;;
74269;SDS011;62754;48.252;11.654;2023-05-07T08:19:57;6.90;;;5.40;;
74269;SDS011;62754;48.252;11.654;2023-05-07T08:22:28;6.35;;;4.78;;
74269;SDS011;62754;48.252;11.654;2023-05-07T08:24:53;6.65;;;4.82;;
74269;SDS011;62754;48.252;11.654;2023-05-07T08:27:21;7.00;;;4.85;;
74269;SDS011;62754;48.252;11.654;2023-05-07T08:29:47;5.88;;;5.28;;
74269;SDS011;62754;48.252;11.654;2023-05-07T08:32:15;5.95;;;5.30;;
74269;SDS011;62754;48.252;11.654;2023-05-07T08:34:46;8.55;;;4.85;;
74269;SDS011;62754;48.252;11.654;2023-05-07T08:37:17;5.85;;;4.32;;
74269;SDS011;62754;48.252;11.654;2023-05-07T08:39:47;6.47;;;4.75;;
74269;SDS011;62754;48.252;11.654;2023-05-07T08:42:15;5.75;;;4.60;;
74269;SDS011;62754;48.252;11.654;2023-05-07T08:44:42;5.63;;;4.47;;
74269;SDS011;62754;48.252;11.654;2023-05-07T08:47:13;4.95;;;4.45;;
74269;SDS011;62754;48.252;11.654;2023-05-07T08:49:41;5.50;;;4.70;;
74269;SDS011;62754;48.252;11.654;2023-05-07T08:52:09;6.38;;;5.18;;
74269;SDS011;62754;48.252;11.654;2023-05-07T08:54:39;5.88;;;4.70;;
74269;SDS011;62754;48.252;11.654;2023-05-07T08:57:05;6.80;;;4.53;;
74269;SDS011;62754;48.252;11.654;2023-05-07T08:59:36;5.40;;;4.50;;
74269;SDS011;62754;48.252;11.654;2023-05-07T09:02:05;6.18;;;4.22;;
74269;SDS011;62754;48.252;11.654;2023-05-07T09:04:36;5.88;;;4.60;;
74269;SDS011;62754;48.252;11.654;2023-05-07T09:07:02;7.28;;;4.78;;
74269;SDS011;62754;48.252;11.654;2023-05-07T09:09:28;6.63;;;5.18;;
74269;SDS011;62754;48.252;11.654;2023-05-07T09:11:57;6.45;;;5.10;;
74269;SDS011;62754;48.252;11.654;2023-05-07T09:14:23;5.85;;;5.05;;
74269;SDS011;62754;48.252;11.654;2023-05-07T09:16:51;5.55;;;4.32;;
74269;SDS011;62754;48.252;11.654;2023-05-07T09:19:21;4.78;;;3.80;;
74269;SDS011;62754;48.252;11.654;2023-05-07T09:21:59;8.90;;;4.78;;
74269;SDS011;62754;48.252;11.654;2023-05-07T09:24:29;6.32;;;4.65;;
74269;SDS011;62754;48.252;11.654;2023-05-07T09:29:25;5.53;;;3.85;;
74269;SDS011;62754;48.252;11.654;2023-05-07T09:31:53;7.40;;;3.75;;
74269;SDS011;62754;48.252;11.654;2023-05-07T09:34:21;5.50;;;3.85;;
74269;SDS011;62754;48.252;11.654;2023-05-07T09:36:52;5.00;;;3.92;;
74269;SDS011;62754;48.252;11.654;2023-05-07T09:39:21;6.47;;;3.28;;
74269;SDS011;62754;48.252;11.654;2023-05-07T09:41:49;6.78;;;4.32;;
74269;SDS011;62754;48.252;11.654;2023-05-07T09:44:15;5.93;;;4.47;;
74269;SDS011;62754;48.252;11.654;2023-05-07T09:49:12;7.45;;;4.00;;
74269;SDS011;62754;48.252;11.654;2023-05-07T09:51:45;4.78;;;3.83;;
74269;SDS011;62754;48.252;11.654;2023-05-07T09:54:16;5.43;;;3.78;;
74269;SDS011;62754;48.252;11.654;2023-05-07T09:56:43;5.90;;;3.80;;
74269;SDS011;62754;48.252;11.654;2023-05-07T09:59:10;4.03;;;3.20;;
74269;SDS011;62754;48.252;11.654;2023-05-07T10:01:42;4.97;;;3.03;;
74269;SDS011;62754;48.252;11.654;2023-05-07T10:04:09;4.95;;;3.00;;
74269;SDS011;62754;48.252;11.654;2023-05-07T10:06:38;6.47;;;3.10;;
74269;SDS011;62754;48.252;11.654;2023-05-07T10:09:08;3.88;;;2.70;;
74269;SDS011;62754;48.252;11.654;2023-05-07T10:11:38;3.20;;;2.17;;
74269;SDS011;62754;48.252;11.654;2023-05-07T10:14:05;3.60;;;2.60;;
74269;SDS011;62754;48.252;11.654;2023-05-07T10:18:57;3.97;;;2.97;;
74269;SDS011;62754;48.252;11.654;2023-05-07T10:21:27;4.28;;;2.85;;
74269;SDS011;62754;48.252;11.654;2023-05-07T10:23:58;3.92;;;2.67;;
74269;SDS011;62754;48.252;11.654;2023-05-07T10:26:25;4.03;;;2.70;;
74269;SDS011;62754;48.252;11.654;2023-05-07T10:29:18;3.63;;;2.90;;
74269;SDS011;62754;48.252;11.654;2023-05-07T10:35:16;5.30;;;2.75;;
74269;SDS011;62754;48.252;11.654;2023-05-07T10:37:45;3.55;;;2.42;;
74269;SDS011;62754;48.252;11.654;2023-05-07T10:40:14;3.97;;;2.80;;
74269;SDS011;62754;48.252;11.654;2023-05-07T10:45:28;3.60;;;2.00;;
74269;SDS011;62754;48.252;11.654;2023-05-07T10:50:35;2.83;;;1.83;;
74269;SDS011;62754;48.252;11.654;2023-05-07T10:55:51;2.83;;;1.77;;
74269;SDS011;62754;48.252;11.654;2023-05-07T10:58:39;2.65;;;1.75;;
74269;SDS011;62754;48.252;11.654;2023-05-07T11:01:05;3.15;;;1.58;;
74269;SDS011;62754;48.252;11.654;2023-05-07T11:06:32;3.20;;;1.88;;
74269;SDS011;62754;48.252;11.654;2023-05-07T11:08:56;3.20;;;1.55;;
74269;SDS011;62754;48.252;11.654;2023-05-07T11:14:42;2.72;;;1.40;;
74269;SDS011;62754;48.252;11.654;2023-05-07T11:17:07;2.65;;;1.48;;
74269;SDS011;62754;48.252;11.654;2023-05-07T11:27:28;3.10;;;1.42;;
74269;SDS011;62754;48.252;11.654;2023-05-07T11:29:57;2.38;;;1.33;;
74269;SDS011;62754;48.252;11.654;2023-05-07T11:32:29;3.20;;;1.30;;
74269;SDS011;62754;48.252;11.654;2023-05-07T11:34:58;3.97;;;1.83;;
74269;SDS011;62754;48.252;11.654;2023-05-07T11:37:26;4.03;;;1.20;;
74269;SDS011;62754;48.252;11.654;2023-05-07T11:40:02;2.95;;;1.40;;
74269;SDS011;62754;48.252;11.654;2023-05-07T11:42:32;3.38;;;1.30;;
74269;SDS011;62754;48.252;11.654;2023-05-07T11:45:02;2.17;;;1.00;;
74269;SDS011;62754;48.252;11.654;2023-05-07T11:47:29;2.80;;;1.17;;
74269;SDS011;62754;48.252;11.654;2023-05-07T11:49:56;2.60;;;1.33;;
74269;SDS011;62754;48.252;11.654;2023-05-07T11:54:56;2.83;;;1.60;;
74269;SDS011;62754;48.252;11.654;2023-05-07T11:57:24;3.53;;;1.42;;
74269;SDS011;62754;48.252;11.654;2023-05-07T11:59:53;2.92;;;1.33;;
74269;SDS011;62754;48.252;11.654;2023-05-07T12:02:19;2.78;;;1.20;;
74269;SDS011;62754;48.252;11.654;2023-05-07T12:07:11;3.85;;;1.15;;
74269;SDS011;62754;48.252;11.654;2023-05-07T12:09:37;4.88;;;1.50;;
74269;SDS011;62754;48.252;11.654;2023-05-07T12:12:06;2.20;;;1.02;;
74269;SDS011;62754;48.252;11.654;2023-05-07T12:14:36;2.33;;;1.40;;
74269;SDS011;62754;48.252;11.654;2023-05-07T12:17:09;2.03;;;1.10;;
74269;SDS011;62754;48.252;11.654;2023-05-07T12:19:36;2.83;;;1.40;;
74269;SDS011;62754;48.252;11.654;2023-05-07T12:22:03;3.00;;;1.40;;
74269;SDS011;62754;48.252;11.654;2023-05-07T12:24:41;3.67;;;2.10;;
74269;SDS011;62754;48.252;11.654;2023-05-07T12:27:21;2.53;;;1.50;;
74269;SDS011;62754;48.252;11.654;2023-05-07T12:32:13;3.05;;;1.63;;
74269;SDS011;62754;48.252;11.654;2023-05-07T12:34:41;2.70;;;1.50;;
74269;SDS011;62754;48.252;11.654;2023-05-07T12:39:37;3.10;;;1.80;;
74269;SDS011;62754;48.252;11.654;2023-05-07T12:42:02;2.65;;;1.80;;
74269;SDS011;62754;48.252;11.654;2023-05-07T12:46:55;2.60;;;1.90;;
74269;SDS011;62754;48.252;11.654;2023-05-07T12:51:47;4.35;;;1.98;;
74269;SDS011;62754;48.252;11.654;2023-05-07T12:54:13;2.58;;;1.98;;
74269;SDS011;62754;48.252;11.654;2023-05-07T12:56:41;4.20;;;2.42;;
74269;SDS011;62754;48.252;11.654;2023-05-07T12:59:07;4.47;;;2.40;;
74269;SDS011;62754;48.252;11.654;2023-05-07T13:04:05;3.70;;;2.40;;
74269;SDS011;62754;48.252;11.654;2023-05-07T13:06:35;3.78;;;2.60;;
74269;SDS011;62754;48.252;11.654;2023-05-07T13:09:03;3.40;;;2.50;;
74269;SDS011;62754;48.252;11.654;2023-05-07T13:11:34;3.17;;;2.40;;
74269;SDS011;62754;48.252;11.654;2023-05-07T13:14:00;2.85;;;2.42;;
74269;SDS011;62754;48.252;11.654;2023-05-07T13:18:55;4.47;;;2.28;;
74269;SDS011;62754;48.252;11.654;2023-05-07T13:21:24;4.13;;;2.60;;
74269;SDS011;62754;48.252;11.654;2023-05-07T13:26:17;3.83;;;2.65;;
74269;SDS011;62754;48.252;11.654;2023-05-07T13:28:45;3.33;;;2.20;;
74269;SDS011;62754;48.252;11.654;2023-05-07T13:33:37;3.30;;;2.00;;
74269;SDS011;62754;48.252;11.654;2023-05-07T13:36:04;3.97;;;2.30;;
74269;SDS011;62754;48.252;11.654;2023-05-07T13:40:56;4.93;;;2.22;;
74269;SDS011;62754;48.252;11.654;2023-05-07T13:43:22;3.90;;;2.25;;
74269;SDS011;62754;48.252;11.654;2023-05-07T13:48:13;2.50;;;1.90;;
74269;SDS011;62754;48.252;11.654;2023-05-07T13:50:41;3.45;;;1.90;;
74269;SDS011;62754;48.252;11.654;2023-05-07T13:53:09;2.78;;;1.92;;
74269;SDS011;62754;48.252;11.654;2023-05-07T13:55:37;2.70;;;1.60;;
74269;SDS011;62754;48.252;11.654;2023-05-07T13:58:03;2.50;;;1.80;;
74269;SDS011;62754;48.252;11.654;2023-05-07T14:02:57;3.72;;;1.95;;
74269;SDS011;62754;48.252;11.654;2023-05-07T14:07:48;2.72;;;1.90;;
74269;SDS011;62754;48.252;11.654;2023-05-07T14:10:16;3.42;;;1.73;;
74269;SDS011;62754;48.252;11.654;2023-05-07T14:12:41;3.00;;;1.88;;
74269;SDS011;62754;48.252;11.654;2023-05-07T14:17:33;2.92;;;1.85;;
74269;SDS011;62754;48.252;11.654;2023-05-07T14:22:24;3.17;;;1.90;;
74269;SDS011;62754;48.252;11.654;2023-05-07T14:24:50;3.63;;;1.70;;
74269;SDS011;62754;48.252;11.654;2023-05-07T14:27:18;2.90;;;1.70;;
74269;SDS011;62754;48.252;11.654;2023-05-07T14:29:44;4.53;;;1.90;;
74269;SDS011;62754;48.252;11.654;2023-05-07T14:32:12;2.97;;;1.83;;
74269;SDS011;62754;48.252;11.654;2023-05-07T14:34:38;3.58;;;1.73;;
74269;SDS011;62754;48.252;11.654;2023-05-07T14:37:03;4.15;;;1.58;;
74269;SDS011;62754;48.252;11.654;2023-05-07T14:39:34;3.70;;;1.60;;
74269;SDS011;62754;48.252;11.654;2023-05-07T14:41:59;3.28;;;1.67;;
74269;SDS011;62754;48.252;11.654;2023-05-07T14:44:25;2.83;;;1.80;;
74269;SDS011;62754;48.252;11.654;2023-05-07T14:46:51;3.30;;;1.90;;
74269;SDS011;62754;48.252;11.654;2023-05-07T14:49:17;3.67;;;1.30;;
74269;SDS011;62754;48.252;11.654;2023-05-07T14:51:45;2.78;;;1.42;;
74269;SDS011;62754;48.252;11.654;2023-05-07T14:54:14;2.67;;;1.55;;
74269;SDS011;62754;48.252;11.654;2023-05-07T14:56:40;3.40;;;1.70;;
74269;SDS011;62754;48.252;11.654;2023-05-07T14:59:06;2.67;;;1.50;;
74269;SDS011;62754;48.252;11.654;2023-05-07T15:01:34;3.08;;;1.60;;
74269;SDS011;62754;48.252;11.654;2023-05-07T15:04:02;2.60;;;1.60;;
74269;SDS011;62754;48.252;11.654;2023-05-07T15:06:29;2.92;;;1.50;;
74269;SDS011;62754;48.252;11.654;2023-05-07T15:08:57;3.10;;;1.60;;
74269;SDS011;62754;48.252;11.654;2023-05-07T15:11:23;4.50;;;1.70;;
74269;SDS011;62754;48.252;11.654;2023-05-07T15:13:51;2.35;;;1.30;;
74269;SDS011;62754;48.252;11.654;2023-05-07T15:16:17;2.50;;;1.40;;
74269;SDS011;62754;48.252;11.654;2023-05-07T15:21:09;3.63;;;1.70;;
74269;SDS011;62754;48.252;11.654;2023-05-07T15:23:35;3.38;;;1.88;;
74269;SDS011;62754;48.252;11.654;2023-05-07T15:26:01;4.60;;;1.45;;
74269;SDS011;62754;48.252;11.654;2023-05-07T15:28:27;2.45;;;1.35;;
74269;SDS011;62754;48.252;11.654;2023-05-07T15:30:52;3.25;;;1.60;;
74269;SDS011;62754;48.252;11.654;2023-05-07T15:33:23;2.70;;;1.25;;
74269;SDS011;62754;48.252;11.654;2023-05-07T15:35:49;3.08;;;1.40;;
74269;SDS011;62754;48.252;11.654;2023-05-07T15:38:15;4.60;;;1.70;;
74269;SDS011;62754;48.252;11.654;2023-05-07T15:40:40;2.58;;;1.38;;
74269;SDS011;62754;48.252;11.654;2023-05-07T15:43:07;2.95;;;1.55;;
74269;SDS011;62754;48.252;11.654;2023-05-07T15:45:40;2.95;;;1.40;;
74269;SDS011;62754;48.252;11.654;2023-05-07T15:48:09;2.92;;;1.33;;
74269;SDS011;62754;48.252;11.654;2023-05-07T15:50:36;5.38;;;1.60;;
74269;SDS011;62754;48.252;11.654;2023-05-07T15:53:03;2.03;;;1.38;;